KDET/DET METAR and TAF weather

Enter ICAO airport designator
Station Type Date Time Source
KDET METAR 2019/02/20 23:53 UTC NOAA

KDET 202353Z 13008KT 1 3/4SM BR OVC003 00/M01 A2976 RMK AO2 SLP084 60001 I1000 I6014 T00001006 10000 21022 56038


Station Type Date Time Source
KDET Decoded METAR 2019/02/20 23:53 UTC NOAA

DETROIT CITY AIRPORT, MI, United States (KDET) 42-25N 083-01W 190M
Feb 20, 2019 - 06:53 PM EST / 2019.02.20 2353 UTC
Wind: from the SE (130 degrees) at 9 MPH (8 KT):0
Visibility: 1 3/4 mile(s):0
Sky conditions: overcast
Weather: mist
Temperature: 32.0 F (0.0 C)
Windchill: 24 F (-4 C):1
Dew Point: 30.9 F (-0.6 C)
Relative Humidity: 95%
Pressure (altimeter): 29.76 in. Hg (1007 hPa)
Pressure tendency: 0.11 inches (3.8 hPa) lower than three hours ago
ob: KDET 202353Z 13008KT 1 3/4SM BR OVC003 00/M01 A2976 RMK AO2 SLP084 60001 I1000 I6014 T00001006 10000 21022 56038
cycle: 0

Station Type Date Time Source
KDET TAF 2019/02/20 20:30 UTC NOAA

TAF
AMD KDET 202026Z 2020/2118 12013KT 3SM BR OVC005
TEMPO 2020/2022 1 1/2SM -FZDZ BR OVC004
FM202200 12013KT 1 1/2SM -RA BR OVC004
FM210200 23013G20KT P6SM OVC015
FM210500 26015G25KT P6SM OVC020
FM211200 26012G20KT P6SM OVC025


Example: see airport list